West Point, Kentucky
Current Conditions -  °F | °C
As of 7:58 PM on Sunday 23 Nov 2014 (Local Time) from KFTK Reporting Station
Overcast Overcast  
Wind Chill: 56°   Ceiling: 900
Heat Index: 56°   Visibility: 10mi
Dew Point: 54°   Wind: 17mph
Humidity: 93%   Direction: 140°SE
Pressure: 29.35"   Gusts: 24mph
Location:  38°N, 85.94°W
Report Text: KFTK 240058Z 14015G21KT 10SM OVC009 13/12 A2935 RMK AO2A SLP940 P0001 T01330122
Loading
Personal Weather Stations






























Interactive Weather Map New forecast layout! Learn more

10-Day Weather Forecast

Advertisements
Track Severe Weather on mobile